KBAC

Barnes County Municipal Airport

Valley City, North Dakota, USA
METAR KBAC 110215Z AUTO 32005KT 10SM CLR M08/M08 A2998 RMK AO2
Observed Flight Rules
Dec-11 @ 02:15 UTC (16 minutes ago) Visual Flight Rules
Wind Visibility Clouds
320° at 5 knots 10 miles
  • Clear skies
Temperatures Readings
Current -8°C / 18°F
Dewpoint -8°C / 18°F
Humidity 100%
Altimeter 29.98" Hg
Pressure 1015 hPa
Elevation 427
METAR KBAC 110215Z AUTO 32005KT 10SM CLR M08/M08 A2998 RMK AO2
Observed Flight Rules
Dec-11 @ 02:15 UTC
(16 minutes ago)
VFR
Wind Visibility
320° at 5 knots 10 miles
Clouds
  • Clear skies
Temperature Dewpoint
-8°C / 18°F -8°C / 18°F
Humidity Altimeter Pressure
100% 29.98" Hg 1015 hPa